Quick Links (Output Below):   Max & Min Temps   /   Climate Reports   /   Zone Forecasts
River Forecasts   /   Forestry Forecasts   /   Aviation Forecasts   /   Radars   /   Features

Terminal Aerodrome Forecast (Mountain Home)

Pick a Site:
Arkadelphia | El Dorado | Fayetteville | Fort Smith | Harrison | Highfill | Hot Springs | Jonesboro
Little Rock | Monticello | Mountain Home | Pine Bluff | Texarkana
 Forecast 

KBPK 231729Z 2318/2418 VRB03KT P6SM VCTS SCT030CB BKN080
      TEMPO 2318/2322 VRB20G30KT 4SM TSRA BKN020CB
     FM240000 01005KT P6SM SCT150 SCT250
     FM240600 03003KT P6SM SCT250
     FM241200 08005KT P6SM FEW250=


 Latest METARs (Observations) 
How to Decode METARs
22Z KBPK 232153Z AUTO 19011KT 10SM VCTS BKN048 22/21 A3009 RMK AO2 LTG
         DSNT W AND NW RAE2059B29E51 SLP181 P0002 T02170206
         
21Z KBPK 232053Z AUTO 00000KT 9SM -RA FEW032 SCT060 BKN075 22/21 A2997
         RMK AO2 LTG DSNT ALQDS TSE02 SLP139 P0003 6//// T02170206
         58007
         
20Z KBPK 231953Z AUTO 16007G17KT 7SM -TSRA FEW032 BKN060 OVC100 21/19
         A3002 RMK AO2 PK WND 10030/1931 WSHFT 1905 LTG DSNT E-S
         SLP156 T02110194 PNO
         
19Z KBPK 231853Z AUTO 00000KT 2 1/2SM TSRA FEW060 SCT085 BKN110 31/26
         A2999 RMK AO2 LTG DSNT N AND NE RAB46 TSB44 SLP144 P0000
         T03060256
         
18Z KBPK 231753Z AUTO VRB03KT 6SM HZ FEW080 33/25 A3002 RMK AO2 LTG
         DSNT E SLP153 T03330250 10333 20239 58014
         
17Z KBPK 231653Z AUTO VRB03KT 6SM HZ BKN075 31/25 A3005 RMK AO2 SLP162
         T03110250
         
16Z KBPK 231553Z AUTO VRB03KT 6SM HZ BKN048 BKN060 29/24 A3005 RMK AO2
         SLP164 T02940244
         
15Z KBPK 231453Z AUTO VRB03KT 6SM HZ BKN048 BKN060 29/25 A3006 RMK AO2
         SLP166 T02940250 58000
         
14Z KBPK 231353Z AUTO 00000KT 6SM HZ SCT050 BKN060 27/24 A3008 RMK AO2
         SLP174 T02670239
         
13Z KBPK 231253Z AUTO 00000KT 6SM BR SCT055 BKN070 25/23 A3007 RMK AO2
         SLP171 T02500228
         
***** Today's Observations (Above) *****


Back to Main Page
http://www.srh.noaa.gov/lzk/qfcst.php

USA.gov is the U.S. government's official web portal to all federal, state and local government web resources and services.